createdAt,value
2023-02-19T00:00:23.831Z,10.10
2023-02-19T00:03:10.355Z,10.20
2023-02-19T00:05:56.632Z,10.10
2023-02-19T00:08:44.320Z,10.10
2023-02-19T00:11:33.366Z,10.00
2023-02-19T00:14:22.030Z,10.10
2023-02-19T00:17:08.508Z,10.10
2023-02-19T00:19:54.770Z,10.10
2023-02-19T00:22:41.264Z,10.00
2023-02-19T00:25:28.880Z,10.00
2023-02-19T00:28:15.309Z,10.00
2023-02-19T00:31:07.074Z,9.90
2023-02-19T00:33:56.139Z,9.90
2023-02-19T00:36:43.804Z,9.90
2023-02-19T00:39:30.197Z,9.90
2023-02-19T00:42:17.968Z,9.90
2023-02-19T00:45:04.667Z,9.90
2023-02-19T00:47:51.011Z,9.90
2023-02-19T00:50:37.325Z,9.90
2023-02-19T00:53:23.808Z,9.90
2023-02-19T00:56:10.756Z,9.80
2023-02-19T00:58:58.572Z,9.80
2023-02-19T01:01:46.228Z,9.80
2023-02-19T01:04:33.019Z,9.80
2023-02-19T01:07:19.230Z,9.90
2023-02-19T01:10:06.585Z,9.80
2023-02-19T01:12:53.078Z,9.70
2023-02-19T01:15:40.958Z,9.80
2023-02-19T01:18:27.434Z,9.80
2023-02-19T01:21:15.169Z,9.80
2023-02-19T01:24:01.764Z,9.80
2023-02-19T01:26:48.209Z,9.70
2023-02-19T01:29:34.764Z,9.80
2023-02-19T01:32:22.524Z,9.90
2023-02-19T01:35:09.488Z,9.80
2023-02-19T01:37:56.304Z,9.80
2023-02-19T01:40:42.532Z,9.90
2023-02-19T01:43:29.589Z,9.80
2023-02-19T01:46:16.085Z,9.90
2023-02-19T01:49:07.282Z,9.90
2023-02-19T01:51:57.964Z,9.80
2023-02-19T01:54:46.733Z,9.80
2023-02-19T01:57:39.358Z,9.80
2023-02-19T02:00:26.130Z,9.80
2023-02-19T02:03:13.746Z,9.80
2023-02-19T02:06:05.682Z,9.80
2023-02-19T02:09:11.712Z,9.80
2023-02-19T02:11:58.468Z,9.80
2023-02-19T02:14:48.059Z,9.70
2023-02-19T02:17:41.126Z,9.70
2023-02-19T02:20:41.664Z,9.70
2023-02-19T02:23:41.655Z,9.70
2023-02-19T02:26:45.160Z,9.70
2023-02-19T02:29:55.934Z,9.60
2023-02-19T02:32:53.371Z,9.60
2023-02-19T02:35:45.160Z,9.60
2023-02-19T02:38:33.770Z,9.60
2023-02-19T02:41:21.061Z,9.60
2023-02-19T02:44:07.561Z,9.70
2023-02-19T02:46:55.449Z,9.70
2023-02-19T02:50:01.991Z,9.70
2023-02-19T02:53:09.669Z,9.70
2023-02-19T02:55:56.657Z,9.70
2023-02-19T02:58:44.312Z,9.70
2023-02-19T03:01:51.413Z,9.70
2023-02-19T03:05:00.509Z,9.60
2023-02-19T03:07:51.294Z,9.70
2023-02-19T03:10:41.738Z,9.70
2023-02-19T03:13:49.376Z,9.60
2023-02-19T03:16:57.323Z,9.70
2023-02-19T03:19:50.149Z,9.70
2023-02-19T03:22:38.864Z,9.70
2023-02-19T03:25:46.607Z,9.60
2023-02-19T03:28:54.606Z,9.70
2023-02-19T03:31:42.821Z,9.60
2023-02-19T03:34:35.620Z,9.60
2023-02-19T03:37:28.684Z,9.60
2023-02-19T03:40:15.948Z,9.60
2023-02-19T03:43:09.218Z,9.60
2023-02-19T03:46:04.780Z,9.60
2023-02-19T03:48:54.441Z,9.60
2023-02-19T03:51:45.288Z,9.60
2023-02-19T03:54:37.481Z,9.60
2023-02-19T03:57:32.924Z,9.60
2023-02-19T04:00:22.949Z,9.60
2023-02-19T04:03:17.428Z,9.70
2023-02-19T04:06:06.692Z,9.80
2023-02-19T04:08:57.146Z,9.70
2023-02-19T04:11:45.295Z,9.70
2023-02-19T04:14:36.215Z,9.70
2023-02-19T04:17:26.364Z,9.70
2023-02-19T04:20:14.308Z,9.60
2023-02-19T04:23:01.152Z,9.60
2023-02-19T04:25:51.490Z,9.70
2023-02-19T04:28:39.918Z,9.60
2023-02-19T04:31:29.184Z,9.70
2023-02-19T04:34:15.983Z,9.70
2023-02-19T04:37:02.374Z,9.60
2023-02-19T04:39:48.871Z,9.60
2023-02-19T04:42:35.106Z,9.60
2023-02-19T04:45:22.700Z,9.70
2023-02-19T04:48:09.644Z,9.50
2023-02-19T04:50:56.057Z,9.60
2023-02-19T04:53:42.764Z,9.50
2023-02-19T04:56:29.404Z,9.50
2023-02-19T04:59:15.823Z,9.50
2023-02-19T05:02:03.422Z,9.50
2023-02-19T05:04:49.886Z,9.50
2023-02-19T05:07:36.247Z,9.50
2023-02-19T05:10:22.585Z,9.60
2023-02-19T05:13:08.974Z,9.50
2023-02-19T05:15:57.123Z,9.40
2023-02-19T05:18:46.546Z,9.50
2023-02-19T05:21:32.838Z,9.50
2023-02-19T05:24:20.601Z,9.50
2023-02-19T05:27:07.159Z,9.60
2023-02-19T05:29:53.422Z,9.50
2023-02-19T05:32:39.741Z,9.50
2023-02-19T05:35:27.452Z,9.60
2023-02-19T05:38:14.688Z,9.50
2023-02-19T05:41:09.404Z,9.50
2023-02-19T05:43:57.532Z,9.60
2023-02-19T05:46:44.169Z,9.50
2023-02-19T05:49:30.635Z,9.50
2023-02-19T05:52:18.329Z,9.50
2023-02-19T05:55:04.824Z,9.50
2023-02-19T05:57:51.150Z,9.60
2023-02-19T06:00:37.462Z,9.50
2023-02-19T06:03:24.240Z,9.60
2023-02-19T06:06:12.249Z,9.60
2023-02-19T06:09:00.117Z,9.50
2023-02-19T06:11:46.801Z,8.50
2023-02-19T06:14:33.390Z,7.80
2023-02-19T06:17:19.764Z,7.30
2023-02-19T06:20:06.607Z,7.00
2023-02-19T06:22:53.035Z,6.80
2023-02-19T06:25:40.911Z,6.80
2023-02-19T06:28:27.543Z,6.70
2023-02-19T06:31:15.024Z,6.60
2023-02-19T06:34:05.754Z,6.50
2023-02-19T06:36:52.127Z,6.50
2023-02-19T06:39:38.630Z,6.40
2023-02-19T06:42:26.640Z,6.10
2023-02-19T06:45:13.140Z,5.90
2023-02-19T06:47:59.450Z,5.90
2023-02-19T06:50:45.787Z,5.90
2023-02-19T06:53:32.164Z,5.90
2023-02-19T06:56:25.117Z,5.70
2023-02-19T06:59:14.415Z,5.60
2023-02-19T07:02:00.712Z,5.60
2023-02-19T07:04:47.129Z,5.60
2023-02-19T07:07:33.513Z,5.60
2023-02-19T07:10:19.718Z,5.70
2023-02-19T07:13:06.226Z,5.80
2023-02-19T07:15:58.854Z,6.10
2023-02-19T07:18:45.414Z,6.10
2023-02-19T07:21:31.866Z,6.00
2023-02-19T07:24:21.444Z,5.90
2023-02-19T07:27:08.096Z,5.80
2023-02-19T07:29:54.429Z,5.70
2023-02-19T07:32:45.383Z,5.70
2023-02-19T07:35:32.061Z,5.90
2023-02-19T07:38:18.632Z,5.90
2023-02-19T07:41:06.502Z,5.90
2023-02-19T07:43:53.224Z,6.00
2023-02-19T07:46:40.025Z,6.10
2023-02-19T07:49:28.656Z,6.20
2023-02-19T07:52:15.022Z,6.10
2023-02-19T07:55:01.491Z,6.20
2023-02-19T07:57:47.967Z,6.10
2023-02-19T08:00:34.289Z,5.90
2023-02-19T08:06:11.083Z,5.50
2023-02-19T08:08:57.933Z,5.30
2023-02-19T08:12:02.224Z,5.20
2023-02-19T08:14:48.951Z,5.20
2023-02-19T08:17:35.332Z,5.30
2023-02-19T08:20:22.134Z,5.40
2023-02-19T08:23:10.597Z,5.50
2023-02-19T08:25:59.872Z,5.50
2023-02-19T08:28:46.516Z,5.60
2023-02-19T08:31:33.884Z,5.50
2023-02-19T08:34:20.884Z,5.20
2023-02-19T08:37:07.210Z,5.00
2023-02-19T08:39:54.944Z,4.90
2023-02-19T08:42:41.475Z,4.90
2023-02-19T08:45:27.738Z,5.00
2023-02-19T08:48:14.595Z,5.10
2023-02-19T08:51:03.914Z,5.40
2023-02-19T08:53:50.456Z,5.60
2023-02-19T08:56:38.090Z,5.90
2023-02-19T08:59:24.403Z,5.90
2023-02-19T09:02:12.622Z,5.90
2023-02-19T09:04:59.042Z,6.00
2023-02-19T09:07:45.402Z,6.00
2023-02-19T09:10:32.128Z,6.00
2023-02-19T09:13:19.877Z,6.00
2023-02-19T09:16:06.845Z,6.10
2023-02-19T09:18:53.183Z,6.20
2023-02-19T09:21:39.619Z,6.60
2023-02-19T09:24:26.417Z,6.80
2023-02-19T09:27:16.944Z,6.90
2023-02-19T09:30:05.196Z,7.10
2023-02-19T09:32:51.745Z,7.40
2023-02-19T09:35:40.450Z,7.90
2023-02-19T09:38:26.960Z,8.30
2023-02-19T09:41:19.140Z,8.50
2023-02-19T09:44:07.922Z,8.50
2023-02-19T09:46:56.346Z,8.60
2023-02-19T09:49:49.958Z,8.60
2023-02-19T09:52:40.461Z,8.40
2023-02-19T09:55:34.435Z,8.50
2023-02-19T09:58:29.896Z,8.60
2023-02-19T10:01:17.004Z,8.60
2023-02-19T10:04:05.587Z,8.30
2023-02-19T10:06:53.440Z,8.30
2023-02-19T10:09:40.115Z,8.30
2023-02-19T10:12:29.262Z,8.20
2023-02-19T10:15:19.907Z,8.30
2023-02-19T10:18:08.861Z,8.30
2023-02-19T10:20:59.262Z,8.30
2023-02-19T10:23:46.824Z,8.30
2023-02-19T10:26:36.386Z,8.30
2023-02-19T10:29:24.686Z,8.30
2023-02-19T10:32:18.218Z,8.40
2023-02-19T10:35:13.912Z,8.30
2023-02-19T10:38:03.460Z,8.20
2023-02-19T10:40:53.402Z,8.40
2023-02-19T10:43:44.036Z,8.80
2023-02-19T10:46:34.258Z,9.00
2023-02-19T10:49:28.020Z,8.90
2023-02-19T10:52:18.867Z,8.60
2023-02-19T10:55:28.360Z,8.30
2023-02-19T10:58:26.322Z,8.30
2023-02-19T11:01:16.264Z,8.30
2023-02-19T11:04:17.260Z,8.20
2023-02-19T11:07:10.097Z,8.20
2023-02-19T11:09:57.512Z,8.30
2023-02-19T11:12:49.970Z,8.40
2023-02-19T11:15:38.182Z,8.50
2023-02-19T11:18:26.859Z,8.60
2023-02-19T11:21:28.396Z,8.80
2023-02-19T11:24:24.543Z,9.10
2023-02-19T11:27:20.310Z,9.40
2023-02-19T11:30:36.330Z,9.60
2023-02-19T11:33:28.293Z,9.60
2023-02-19T11:36:28.776Z,9.60
2023-02-19T11:39:25.187Z,9.50
2023-02-19T11:42:25.489Z,9.60
2023-02-19T11:45:29.438Z,9.60
2023-02-19T11:48:33.795Z,9.60
2023-02-19T11:51:34.710Z,9.70
2023-02-19T11:54:48.583Z,9.70
2023-02-19T11:57:43.136Z,9.80
2023-02-19T12:00:32.165Z,9.70
2023-02-19T12:03:49.382Z,9.50
2023-02-19T12:06:46.489Z,9.20
2023-02-19T12:09:46.144Z,9.10
2023-02-19T12:12:49.862Z,9.00
2023-02-19T12:19:00.995Z,8.50
2023-02-19T12:22:05.352Z,8.40
2023-02-19T12:25:26.486Z,8.30
2023-02-19T12:28:40.534Z,8.40
2023-02-19T12:32:02.122Z,8.60
2023-02-19T12:35:05.830Z,8.70
2023-02-19T12:38:00.305Z,8.90
2023-02-19T12:41:08.194Z,8.90
2023-02-19T12:43:58.851Z,8.70
2023-02-19T12:46:51.956Z,8.50
2023-02-19T12:49:45.676Z,8.40
2023-02-19T12:52:40.266Z,8.30
2023-02-19T12:55:30.876Z,8.30
2023-02-19T12:58:27.142Z,8.30
2023-02-19T13:01:19.951Z,8.50
2023-02-19T13:04:18.838Z,8.50
2023-02-19T13:07:12.532Z,8.50
2023-02-19T13:10:07.553Z,8.60
2023-02-19T13:12:55.723Z,8.50
2023-02-19T13:15:44.291Z,8.40
2023-02-19T13:18:35.254Z,8.30
2023-02-19T13:21:42.496Z,8.20
2023-02-19T13:24:34.269Z,8.20
2023-02-19T13:27:48.798Z,8.30
2023-02-19T13:30:50.314Z,8.40
2023-02-19T13:33:46.585Z,8.30
2023-02-19T13:36:35.033Z,8.30
2023-02-19T13:39:23.233Z,8.30
2023-02-19T13:42:27.873Z,8.30
2023-02-19T13:45:23.677Z,8.30
2023-02-19T13:48:26.853Z,8.20
2023-02-19T13:51:51.086Z,8.10
2023-02-19T13:54:40.146Z,8.10
2023-02-19T13:57:30.178Z,8.00
2023-02-19T14:00:49.444Z,7.90
2023-02-19T14:03:50.840Z,7.90
2023-02-19T14:07:23.837Z,7.90
2023-02-19T14:10:14.941Z,7.80
2023-02-19T14:13:01.285Z,7.70
2023-02-19T14:15:51.205Z,7.70
2023-02-19T14:18:45.518Z,7.80
2023-02-19T14:21:37.543Z,7.90
2023-02-19T14:24:25.621Z,7.90
2023-02-19T14:27:14.645Z,8.00
2023-02-19T14:30:01.434Z,8.00
2023-02-19T14:32:54.444Z,7.90
2023-02-19T14:35:44.671Z,7.90
2023-02-19T14:38:36.711Z,8.00
2023-02-19T14:41:24.676Z,8.10
2023-02-19T14:44:17.758Z,8.30
2023-02-19T14:47:07.462Z,8.20
2023-02-19T14:49:56.610Z,8.30
2023-02-19T14:52:46.586Z,8.40
2023-02-19T14:55:37.873Z,8.30
2023-02-19T14:58:29.434Z,8.30
2023-02-19T15:01:29.925Z,8.20
2023-02-19T15:04:23.619Z,8.30
2023-02-19T15:07:14.933Z,8.20
2023-02-19T15:10:05.550Z,8.20
2023-02-19T15:12:54.450Z,8.10
2023-02-19T15:15:45.882Z,8.10
2023-02-19T15:18:36.488Z,8.10
2023-02-19T15:21:25.755Z,8.10
2023-02-19T15:24:12.915Z,8.00
2023-02-19T15:26:59.942Z,7.90
2023-02-19T15:29:47.029Z,7.80
2023-02-19T15:32:33.378Z,7.70
2023-02-19T15:35:24.280Z,7.80
2023-02-19T15:38:13.444Z,7.60
2023-02-19T15:40:59.979Z,7.60
2023-02-19T15:43:53.835Z,7.60
2023-02-19T15:46:42.461Z,7.50
2023-02-19T15:49:34.813Z,7.50
2023-02-19T15:52:30.420Z,7.50
2023-02-19T15:55:27.758Z,7.50
2023-02-19T15:58:20.274Z,7.50
2023-02-19T16:01:13.095Z,7.40
2023-02-19T16:04:00.283Z,7.30
2023-02-19T16:06:57.160Z,7.30
2023-02-19T16:09:45.200Z,7.20
2023-02-19T16:12:31.345Z,7.10
2023-02-19T16:15:21.590Z,7.00
2023-02-19T16:18:15.042Z,6.90
2023-02-19T16:21:04.475Z,6.90
2023-02-19T16:23:54.717Z,6.80
2023-02-19T16:26:44.046Z,6.90
2023-02-19T16:29:33.257Z,6.80
2023-02-19T16:32:19.891Z,6.70
2023-02-19T16:35:22.377Z,6.70
2023-02-19T16:38:14.100Z,6.70
2023-02-19T16:41:13.236Z,6.60
2023-02-19T16:44:06.535Z,6.50
2023-02-19T16:46:56.484Z,6.50
2023-02-19T16:49:44.180Z,6.40
2023-02-19T16:52:31.323Z,6.40
2023-02-19T16:55:18.044Z,6.30
2023-02-19T16:58:04.879Z,6.30
2023-02-19T17:00:53.101Z,6.30
2023-02-19T17:03:40.579Z,6.20
2023-02-19T17:06:27.696Z,6.20
2023-02-19T17:09:15.209Z,6.20
2023-02-19T17:12:01.851Z,6.10
2023-02-19T17:14:48.231Z,6.10
2023-02-19T17:17:35.855Z,6.10
2023-02-19T17:20:27.341Z,6.10
2023-02-19T17:23:14.266Z,6.00
2023-02-19T17:26:00.734Z,6.10
2023-02-19T17:28:47.607Z,6.00
2023-02-19T17:31:34.740Z,6.00
2023-02-19T17:34:22.324Z,5.90
2023-02-19T17:37:08.827Z,5.90
2023-02-19T17:39:55.254Z,5.70
2023-02-19T17:42:42.013Z,5.70
2023-02-19T17:45:28.786Z,5.70
2023-02-19T17:48:15.924Z,5.70
2023-02-19T17:51:04.129Z,5.80
2023-02-19T17:53:51.000Z,5.80
2023-02-19T17:56:39.956Z,5.80
2023-02-19T17:59:26.186Z,5.80
2023-02-19T18:02:12.850Z,5.90
2023-02-19T18:04:59.523Z,5.80
2023-02-19T18:07:50.398Z,5.80
2023-02-19T18:10:37.188Z,5.70
2023-02-19T18:13:23.755Z,5.80
2023-02-19T18:16:10.718Z,5.80
2023-02-19T18:18:58.361Z,5.80
2023-02-19T18:21:45.352Z,5.80
2023-02-19T18:24:34.514Z,5.70
2023-02-19T18:27:23.430Z,5.80
2023-02-19T18:30:11.048Z,5.70
2023-02-19T18:32:57.396Z,5.70
2023-02-19T18:35:43.688Z,5.70
2023-02-19T18:38:30.127Z,5.60
2023-02-19T18:41:20.935Z,5.60
2023-02-19T18:44:07.896Z,5.60
2023-02-19T18:46:54.646Z,5.60
2023-02-19T18:49:41.161Z,5.50
2023-02-19T18:52:29.094Z,5.50
2023-02-19T18:55:15.563Z,5.50
2023-02-19T18:58:03.636Z,5.50
2023-02-19T19:00:50.392Z,5.40
2023-02-19T19:03:36.601Z,5.40
2023-02-19T19:06:23.022Z,5.40
2023-02-19T19:09:10.052Z,5.40
2023-02-19T19:11:56.745Z,5.50
2023-02-19T19:14:45.678Z,5.40
2023-02-19T19:17:32.685Z,5.30
2023-02-19T19:20:20.089Z,5.30
2023-02-19T19:23:06.609Z,5.30
2023-02-19T19:25:54.577Z,5.30
2023-02-19T19:28:44.349Z,5.30
2023-02-19T19:31:37.369Z,5.20
2023-02-19T19:34:24.154Z,5.20
2023-02-19T19:37:10.898Z,5.20
2023-02-19T19:39:57.622Z,5.20
2023-02-19T19:42:44.710Z,5.20
2023-02-19T19:45:31.240Z,5.20
2023-02-19T19:48:19.008Z,5.20
2023-02-19T19:51:05.517Z,5.20
2023-02-19T19:53:52.167Z,5.10
2023-02-19T19:56:42.087Z,5.10
2023-02-19T19:59:28.583Z,5.10
2023-02-19T20:02:15.162Z,5.10
2023-02-19T20:05:02.839Z,5.00
2023-02-19T20:07:49.534Z,5.10
2023-02-19T20:10:36.121Z,5.10
2023-02-19T20:13:24.679Z,5.10
2023-02-19T20:16:12.483Z,5.10
2023-02-19T20:18:59.063Z,5.10
2023-02-19T20:21:47.905Z,5.20
2023-02-19T20:24:34.264Z,5.00
2023-02-19T20:27:22.074Z,4.90
2023-02-19T20:30:11.376Z,4.90
2023-02-19T20:32:57.843Z,4.80
2023-02-19T20:35:44.145Z,4.80
2023-02-19T20:38:31.924Z,4.80
2023-02-19T20:41:20.344Z,4.80
2023-02-19T20:44:07.046Z,4.70
2023-02-19T20:46:57.272Z,4.80
2023-02-19T20:49:58.162Z,4.70
2023-02-19T20:52:44.402Z,4.70
2023-02-19T20:55:32.781Z,4.70
2023-02-19T20:58:20.819Z,4.80
2023-02-19T21:01:08.293Z,4.90
2023-02-19T21:03:55.780Z,5.00
2023-02-19T21:06:42.525Z,5.20
2023-02-19T21:09:28.988Z,5.20
2023-02-19T21:12:16.708Z,5.30
2023-02-19T21:15:04.346Z,5.40
2023-02-19T21:17:51.266Z,5.40
2023-02-19T21:20:37.648Z,5.40
2023-02-19T21:23:23.981Z,5.50
2023-02-19T21:26:10.842Z,5.50
2023-02-19T21:28:58.672Z,5.60
2023-02-19T21:31:47.461Z,5.60
2023-02-19T21:34:34.319Z,5.50
2023-02-19T21:37:20.898Z,5.60
2023-02-19T21:40:08.848Z,5.60
2023-02-19T21:42:55.520Z,5.70
2023-02-19T21:45:43.553Z,5.70
2023-02-19T21:48:29.929Z,5.70
2023-02-19T21:51:16.647Z,5.70
2023-02-19T21:54:04.369Z,5.70
2023-02-19T21:56:51.669Z,5.70
2023-02-19T21:59:38.310Z,5.70
2023-02-19T22:02:26.011Z,5.70
2023-02-19T22:05:12.615Z,5.80
2023-02-19T22:08:00.129Z,5.70
2023-02-19T22:10:46.833Z,5.70
2023-02-19T22:13:33.178Z,5.80
2023-02-19T22:16:20.319Z,5.90
2023-02-19T22:19:07.943Z,5.90
2023-02-19T22:21:54.232Z,5.90
2023-02-19T22:24:40.528Z,5.90
2023-02-19T22:27:29.023Z,5.90
2023-02-19T22:30:16.110Z,5.90
2023-02-19T22:33:03.191Z,5.90
2023-02-19T22:35:51.095Z,6.00
2023-02-19T22:38:37.453Z,5.90
2023-02-19T22:41:24.294Z,6.00
2023-02-19T22:44:11.734Z,6.00
2023-02-19T22:46:58.500Z,6.00
2023-02-19T22:49:45.405Z,6.00
2023-02-19T22:52:33.268Z,5.90
2023-02-19T22:55:19.795Z,6.00
2023-02-19T22:58:06.249Z,6.00
2023-02-19T23:00:52.745Z,6.00
2023-02-19T23:03:47.121Z,6.00
2023-02-19T23:06:35.872Z,6.00
2023-02-19T23:09:26.730Z,6.00
2023-02-19T23:12:13.614Z,6.00
2023-02-19T23:15:00.029Z,6.00
2023-02-19T23:17:46.226Z,6.00
2023-02-19T23:20:32.617Z,6.00
2023-02-19T23:23:18.992Z,5.90
2023-02-19T23:26:07.051Z,6.00
2023-02-19T23:28:53.591Z,6.10
2023-02-19T23:31:40.116Z,6.00
2023-02-19T23:34:26.232Z,6.00
2023-02-19T23:37:12.659Z,6.10
2023-02-19T23:40:01.194Z,6.10
2023-02-19T23:42:48.952Z,6.00
2023-02-19T23:45:35.368Z,6.20
2023-02-19T23:48:21.973Z,6.20
2023-02-19T23:51:08.677Z,6.10
2023-02-19T23:53:55.131Z,6.10
2023-02-19T23:56:41.695Z,6.10
2023-02-19T23:59:30.895Z,6.00
